Hlavní strana
METAR-TAF:

METAR-TAF

Letiště :

Air Force Base Waterkloof

Waterkloof, Jihoafrická republika

zeměpisná šířka: 25-50S, zeměpisná délka: 028-13E, výška: 1498 m

METAR: chybějící

Čas: 11:59 (09:59 UTC)

Předpověď počasí

Zpráva byla vytvořena před 27 hodinami a 59 minutami, v 06:00 UTC
Předpověď platná od 16 v 07 UTC do 16 v 18 UTC
Východní vítr 6 kt
Viditelnost 10 km a více
Žádná oblačnost pod 1500 m, nevyskytují se cumulonimby.
Změna
od 16 v 07 UTC do 16 v 09 UTC
Severoseverovýchodní vítr 10 kt
Změna
od 16 v 10 UTC do 16 v 12 UTC
Severoseverozápadní vítr 12 kt
Polojasno ve výšce 4500 ft
Změna
od 16 v 13 UTC do 16 v 15 UTC
Západní vítr 10 kt
Změna
od 16 v 15 UTC do 16 v 17 UTC
Jihojihozápadní vítr 8 kt
Viditelnost 10 km a více
Žádná oblačnost pod 1500 m, nevyskytují se cumulonimby.

TAF: FAWK 160600Z 1607/1618 09006KT CAVOK BECMG 1607/1609 03010KT BECMG 1610/1612 33012KT SCT045 BECMG 1613/1615 27010KT BECMG 1615/1617 20008KT CAVOK TX30/1613Z TN23/1618Z

Stav a předpovědi počasí z více než 4 000 letišť (zprávy METAR a TAF).

Červené a žluté tečky na mapě představují dostupné meteorologické stanice.

Když kurzor umístíte na tečku, zobrazí se název stanice.

Pak kliknutím zobrazíte stav a předpověď počasí.

Chcete-li změnit mapu, kliknutím na zelené tlačítko se znaménkem +mapu přiblížíte, kliknutím na zelené tlačítko se znaménkem – mapu oddálíte a kliknutím na zelené šipky přejdete na sousední mapy.


METAR-TAF: